Time;durP1;ratioP1;P1;durP2;ratioP2;P2;SDS_P1;SDS_P2;PMS_P1;PMS_P2;Temp;Humidity;BMP_temperature;BMP_pressure;BME280_temperature;BME280_humidity;BME280_pressure;Samples;Min_cycle;Max_cycle;Signal;HPM_P1;HPM_P2
2022/08/14 00:01:29;;;;;;;15.57;7.55;;;;;;;;;;5008963;28;20125;-71
2022/08/14 00:03:55;;;;;;;13.85;7.65;;;;;;;;;;5009224;28;20431;-70
2022/08/14 00:06:21;;;;;;;13.40;8.43;;;;;;;;;;5009194;28;20457;-70
2022/08/14 00:08:48;;;;;;;13.00;7.80;;;;;;;;;;5009128;28;20053;-70
2022/08/14 00:11:14;;;;;;;15.50;8.23;;;;;;;;;;5007791;28;20057;-71
2022/08/14 00:13:40;;;;;;;14.27;7.93;;;;;;;;;;5009145;28;20050;-70
2022/08/14 00:16:06;;;;;;;15.98;8.20;;;;;;;;;;5012361;28;20045;-70
2022/08/14 00:18:38;;;;;;;14.20;7.97;;;;;;;;;;5012887;28;20101;-70
2022/08/14 00:21:04;;;;;;;16.58;8.05;;;;;;;;;;5012616;28;20072;-70
2022/08/14 00:23:30;;;;;;;14.70;8.60;;;;;;;;;;5012702;28;20125;-70
2022/08/14 00:25:56;;;;;;;13.40;7.65;;;;;;;;;;5012706;28;20054;-70
2022/08/14 00:28:25;;;;;;;15.48;8.65;;;;;;;;;;5012634;28;20049;-70
2022/08/14 00:30:56;;;;;;;20.70;8.75;;;;;;;;;;5012749;28;20049;-70
2022/08/14 00:33:23;;;;;;;13.38;8.18;;;;;;;;;;5012849;28;20076;-68
2022/08/14 00:35:49;;;;;;;18.70;8.30;;;;;;;;;;5012550;28;20128;-71
2022/08/14 00:38:16;;;;;;;16.15;8.13;;;;;;;;;;5012606;28;20076;-70
2022/08/14 00:40:42;;;;;;;15.25;9.05;;;;;;;;;;5012599;28;20486;-70
2022/08/14 00:43:08;;;;;;;18.10;8.82;;;;;;;;;;4994842;28;20041;-69
2022/08/14 00:45:35;;;;;;;15.45;8.75;;;;;;;;;;5012635;28;20129;-69
2022/08/14 00:48:01;;;;;;;14.90;8.18;;;;;;;;;;5012419;28;20038;-70
2022/08/14 00:50:29;;;;;;;14.00;8.98;;;;;;;;;;5012349;28;20503;-70
2022/08/14 00:52:56;;;;;;;16.92;9.00;;;;;;;;;;5012438;28;20053;-70
2022/08/14 00:55:22;;;;;;;16.05;9.07;;;;;;;;;;5012207;28;20132;-71
2022/08/14 00:58:29;;;;;;;15.50;9.30;;;;;;;;;;5012062;28;20199;-70
2022/08/14 01:00:38;;;;;;;15.93;9.23;;;;;;;;;;4994281;28;20086;-70
2022/08/14 01:03:05;;;;;;;15.15;9.90;;;;;;;;;;5011704;28;20110;-70
2022/08/14 01:05:33;;;;;;;15.73;8.93;;;;;;;;;;5011813;28;20050;-70
2022/08/14 01:07:59;;;;;;;18.00;10.30;;;;;;;;;;4993850;28;20053;-70
2022/08/14 01:10:49;;;;;;;14.57;9.43;;;;;;;;;;5012126;28;20137;-70
2022/08/14 01:13:15;;;;;;;15.90;9.55;;;;;;;;;;5011589;28;20045;-70
2022/08/14 01:15:42;;;;;;;15.93;10.20;;;;;;;;;;5011673;28;20180;-70
2022/08/14 01:21:03;;;;;;;17.27;10.02;;;;;;;;;;5011773;28;20128;-69
2022/08/14 01:23:30;;;;;;;17.13;10.20;;;;;;;;;;5011993;28;20177;-70
2022/08/14 01:26:05;;;;;;;19.35;9.95;;;;;;;;;;5011553;28;20165;-69
2022/08/14 01:28:34;;;;;;;17.25;10.65;;;;;;;;;;5011683;28;20069;-69
2022/08/14 01:31:04;;;;;;;17.77;10.02;;;;;;;;;;5011735;28;20054;-70
2022/08/14 01:33:30;;;;;;;15.25;10.20;;;;;;;;;;5011858;28;20398;-69
2022/08/14 01:35:59;;;;;;;15.90;9.65;;;;;;;;;;5011491;28;20090;-69
2022/08/14 01:38:30;;;;;;;20.17;10.20;;;;;;;;;;5011037;28;20049;-69
2022/08/14 01:40:56;;;;;;;16.17;10.65;;;;;;;;;;5011160;28;20049;-69
2022/08/14 01:43:22;;;;;;;18.80;10.00;;;;;;;;;;5011553;28;20046;-69
2022/08/14 01:45:52;;;;;;;17.10;10.43;;;;;;;;;;5011269;28;20065;-69
2022/08/14 01:48:18;;;;;;;20.02;10.68;;;;;;;;;;5011464;28;20204;-69
2022/08/14 01:50:44;;;;;;;20.88;11.45;;;;;;;;;;5011170;28;20077;-69
2022/08/14 01:53:11;;;;;;;17.55;10.70;;;;;;;;;;5011061;28;20057;-68
2022/08/14 01:55:38;;;;;;;19.30;10.50;;;;;;;;;;5010995;28;20061;-70
2022/08/14 01:58:04;;;;;;;16.83;10.68;;;;;;;;;;5010584;28;20458;-70
2022/08/14 02:00:30;;;;;;;17.45;10.68;;;;;;;;;;5010931;28;20050;-70
2022/08/14 02:02:57;;;;;;;17.08;10.25;;;;;;;;;;5010870;28;20077;-70
2022/08/14 02:05:29;;;;;;;14.65;10.50;;;;;;;;;;5010664;28;20141;-68
2022/08/14 02:07:55;;;;;;;18.88;10.32;;;;;;;;;;5011052;28;20133;-69
2022/08/14 02:10:21;;;;;;;17.17;10.88;;;;;;;;;;5010699;28;20410;-69
2022/08/14 02:12:48;;;;;;;17.40;11.82;;;;;;;;;;5010576;28;20094;-70
2022/08/14 02:15:18;;;;;;;16.48;11.15;;;;;;;;;;4991526;28;20108;-69
2022/08/14 02:17:44;;;;;;;16.52;10.77;;;;;;;;;;5010655;28;20089;-70
2022/08/14 02:20:12;;;;;;;17.20;10.85;;;;;;;;;;5010488;28;20394;-70
2022/08/14 02:22:38;;;;;;;15.90;11.30;;;;;;;;;;5009030;28;20062;-70
2022/08/14 02:25:04;;;;;;;19.05;11.00;;;;;;;;;;5010211;28;20054;-70
2022/08/14 02:27:30;;;;;;;20.10;11.98;;;;;;;;;;5010433;28;20370;-71
2022/08/14 02:29:58;;;;;;;18.70;10.73;;;;;;;;;;4992300;28;20148;-69
2022/08/14 02:32:24;;;;;;;19.42;11.77;;;;;;;;;;4992151;28;20126;-70
2022/08/14 02:34:53;;;;;;;18.95;11.30;;;;;;;;;;5010368;28;20080;-69
2022/08/14 02:37:19;;;;;;;;;;;;;;;;;;5010168;28;20045;-70
2022/08/14 02:39:45;;;;;;;19.30;12.88;;;;;;;;;;5010515;28;19974;-70
2022/08/14 02:42:13;;;;;;;19.52;12.27;;;;;;;;;;5010633;28;20050;-69
2022/08/14 02:44:43;;;;;;;18.63;12.70;;;;;;;;;;5010658;28;20077;-70
2022/08/14 02:47:09;;;;;;;21.10;15.70;;;;;;;;;;5010183;28;20085;-69
2022/08/14 02:49:36;;;;;;;24.27;16.58;;;;;;;;;;5010049;28;20097;-70
2022/08/14 02:52:02;;;;;;;19.67;13.55;;;;;;;;;;5010191;28;20050;-70
2022/08/14 02:54:29;;;;;;;17.48;12.57;;;;;;;;;;5010065;28;20199;-70
2022/08/14 02:56:58;;;;;;;17.52;12.77;;;;;;;;;;5009837;28;20057;-69
2022/08/14 02:59:27;;;;;;;19.95;12.32;;;;;;;;;;5009491;28;20065;-70
2022/08/14 03:01:53;;;;;;;17.85;12.15;;;;;;;;;;5009649;28;20073;-69
2022/08/14 03:04:19;;;;;;;17.17;11.60;;;;;;;;;;5009761;28;20366;-69
2022/08/14 03:06:46;;;;;;;19.55;12.27;;;;;;;;;;4992004;28;20065;-69
2022/08/14 03:09:12;;;;;;;16.58;11.77;;;;;;;;;;5009530;28;20061;-70
2022/08/14 03:11:38;;;;;;;18.40;11.52;;;;;;;;;;5009784;28;20053;-70
2022/08/14 03:14:05;;;;;;;15.07;11.00;;;;;;;;;;5009589;28;20046;-69
2022/08/14 03:16:35;;;;;;;18.35;11.90;;;;;;;;;;5009313;28;20171;-69
2022/08/14 03:19:02;;;;;;;16.98;11.27;;;;;;;;;;5009545;28;20057;-69
2022/08/14 03:21:30;;;;;;;18.98;12.38;;;;;;;;;;4991495;28;20439;-70
2022/08/14 03:24:08;;;;;;;19.10;11.50;;;;;;;;;;5009545;28;20057;-69
2022/08/14 03:26:35;;;;;;;16.88;12.43;;;;;;;;;;5009230;28;20389;-70
2022/08/14 03:29:01;;;;;;;20.80;12.55;;;;;;;;;;5009446;28;20151;-70
2022/08/14 03:31:28;;;;;;;18.08;12.57;;;;;;;;;;5009698;28;20519;-69
2022/08/14 03:33:54;;;;;;;19.58;12.90;;;;;;;;;;4991715;28;20404;-70
2022/08/14 03:36:21;;;;;;;22.73;11.82;;;;;;;;;;5009597;28;20058;-69
2022/08/14 03:38:54;;;;;;;17.80;12.23;;;;;;;;;;5009723;28;20449;-69
2022/08/14 03:41:25;;;;;;;17.20;12.25;;;;;;;;;;5009678;28;20133;-69
2022/08/14 03:43:56;;;;;;;18.20;11.63;;;;;;;;;;5009670;28;20053;-69
2022/08/14 03:46:23;;;;;;;20.27;12.30;;;;;;;;;;4992134;28;20058;-69
2022/08/14 03:48:49;;;;;;;21.20;12.48;;;;;;;;;;4993388;28;20062;-70
2022/08/14 03:51:15;;;;;;;;;;;;;;;;;;5014078;28;20050;-70
2022/08/14 03:53:43;;;;;;;18.95;11.90;;;;;;;;;;5013543;28;19993;-71
2022/08/14 03:56:13;;;;;;;18.85;12.25;;;;;;;;;;5013473;28;20124;-70
2022/08/14 03:58:47;;;;;;;16.25;11.50;;;;;;;;;;4995749;28;20062;-70
2022/08/14 04:01:14;;;;;;;19.88;12.60;;;;;;;;;;5013358;28;20405;-70
2022/08/14 04:03:40;;;;;;;18.65;12.57;;;;;;;;;;5013675;28;20061;-69
2022/08/14 04:06:10;;;;;;;19.75;13.00;;;;;;;;;;5013211;28;20050;-69
2022/08/14 04:08:37;;;;;;;18.48;13.05;;;;;;;;;;5012985;28;20442;-69
2022/08/14 04:11:03;;;;;;;21.75;13.07;;;;;;;;;;5012337;28;20123;-69
2022/08/14 04:13:30;;;;;;;19.70;12.50;;;;;;;;;;5012341;28;20046;-70
2022/08/14 04:15:56;;;;;;;17.70;12.57;;;;;;;;;;5012184;28;20049;-70
2022/08/14 04:18:23;;;;;;;19.92;12.88;;;;;;;;;;5012265;28;20465;-70
2022/08/14 04:20:48;;;;;;;;;;;;;;;;;;5012153;28;20046;-70
2022/08/14 04:23:15;;;;;;;21.88;12.40;;;;;;;;;;5011957;28;20265;-70
2022/08/14 04:25:42;;;;;;;17.95;12.50;;;;;;;;;;5011658;28;20423;-69
2022/08/14 04:28:10;;;;;;;18.50;12.65;;;;;;;;;;5011400;28;20501;-70
2022/08/14 04:30:38;;;;;;;19.30;12.43;;;;;;;;;;5011079;28;20049;-69
2022/08/14 04:33:04;;;;;;;18.48;12.63;;;;;;;;;;5011390;28;20199;-69
2022/08/14 04:35:30;;;;;;;20.15;13.35;;;;;;;;;;5011031;28;20046;-70
2022/08/14 04:43:35;;;;;;;19.65;13.13;;;;;;;;;;5011110;28;20046;-69
2022/08/14 04:46:05;;;;;;;21.75;13.05;;;;;;;;;;5010936;28;20168;-69
2022/08/14 04:48:31;;;;;;;19.70;13.38;;;;;;;;;;4992905;28;20056;-69
2022/08/14 04:51:00;;;;;;;21.52;12.07;;;;;;;;;;5011026;28;20049;-70
2022/08/14 04:53:30;;;;;;;17.77;11.85;;;;;;;;;;5010852;28;20060;-69
2022/08/14 04:55:56;;;;;;;19.42;12.73;;;;;;;;;;5010856;28;20075;-69
2022/08/14 04:58:25;;;;;;;20.73;12.27;;;;;;;;;;5010848;28;20076;-69
2022/08/14 05:00:51;;;;;;;16.27;11.82;;;;;;;;;;5010201;28;20124;-70
2022/08/14 05:03:20;;;;;;;18.83;13.07;;;;;;;;;;5010785;28;20049;-69
2022/08/14 05:05:50;;;;;;;21.15;12.65;;;;;;;;;;5010815;28;20346;-68
2022/08/14 05:08:17;;;;;;;20.52;12.25;;;;;;;;;;5010722;28;20064;-70
2022/08/14 05:10:50;;;;;;;18.00;11.90;;;;;;;;;;5010213;28;20555;-69
2022/08/14 05:13:17;;;;;;;17.02;11.77;;;;;;;;;;5010117;28;20469;-69
2022/08/14 05:15:45;;;;;;;18.85;12.38;;;;;;;;;;5010438;28;20042;-69
2022/08/14 05:18:15;;;;;;;18.73;12.90;;;;;;;;;;4992475;28;20092;-70
2022/08/14 05:20:45;;;;;;;17.70;13.32;;;;;;;;;;5010375;28;20265;-70
2022/08/14 05:23:15;;;;;;;18.58;12.48;;;;;;;;;;5010201;28;20049;-68
2022/08/14 05:25:41;;;;;;;22.08;13.68;;;;;;;;;;5010227;28;20050;-69
2022/08/14 05:28:12;;;;;;;19.67;12.95;;;;;;;;;;5009859;28;20053;-68
2022/08/14 05:30:42;;;;;;;22.10;12.75;;;;;;;;;;5010189;28;20041;-68
2022/08/14 05:33:08;;;;;;;20.98;13.02;;;;;;;;;;5010043;28;20116;-69
2022/08/14 05:35:34;;;;;;;;;;;;;;;;;;4992519;28;20046;-68
2022/08/14 05:38:00;;;;;;;18.05;12.13;;;;;;;;;;5009900;28;20048;-70
2022/08/14 05:40:26;;;;;;;16.60;11.90;;;;;;;;;;4992100;28;20137;-68
2022/08/14 05:42:53;;;;;;;18.27;12.15;;;;;;;;;;5009527;28;20085;-69
2022/08/14 05:45:19;;;;;;;20.33;12.02;;;;;;;;;;5009297;28;20057;-71
2022/08/14 05:47:45;;;;;;;;;;;;;;;;;;5009932;28;20050;-70
2022/08/14 05:50:12;;;;;;;15.52;11.00;;;;;;;;;;5009287;28;19941;-69
2022/08/14 05:52:38;;;;;;;15.52;11.38;;;;;;;;;;5009433;28;20466;-67
2022/08/14 05:55:05;;;;;;;17.17;10.80;;;;;;;;;;5009838;28;20061;-66
2022/08/14 05:57:31;;;;;;;19.42;11.05;;;;;;;;;;5009791;28;20061;-68
2022/08/14 05:59:57;;;;;;;;;;;;;;;;;;5010498;28;20390;-69
2022/08/14 06:02:23;;;;;;;15.82;10.90;;;;;;;;;;5009946;28;19925;-68
2022/08/14 06:04:50;;;;;;;;;;;;;;;;;;5010370;28;20153;-67
2022/08/14 06:07:16;;;;;;;;;;;;;;;;;;5010371;28;19961;-68
2022/08/14 06:09:43;;;;;;;18.50;11.52;;;;;;;;;;5009681;28;20358;-68
2022/08/14 06:12:09;;;;;;;17.38;11.93;;;;;;;;;;5008668;28;20046;-68
2022/08/14 06:14:38;;;;;;;17.10;12.10;;;;;;;;;;5009542;28;20063;-67
2022/08/14 06:17:05;;;;;;;17.80;12.13;;;;;;;;;;5009491;28;20041;-69
2022/08/14 06:19:31;;;;;;;19.65;12.05;;;;;;;;;;5009400;28;20212;-68
2022/08/14 06:21:57;;;;;;;;;;;;;;;;;;5009848;28;20077;-68
2022/08/14 06:24:23;;;;;;;17.75;11.60;;;;;;;;;;5009064;28;19921;-67
2022/08/14 06:26:49;;;;;;;;;;;;;;;;;;4991527;28;20504;-67
2022/08/14 06:29:15;;;;;;;17.55;10.95;;;;;;;;;;5008919;28;19921;-67
2022/08/14 06:31:41;;;;;;;18.55;11.95;;;;;;;;;;5009338;28;20053;-68
2022/08/14 06:34:15;;;;;;;20.00;11.60;;;;;;;;;;5104516;27;20972;-68
2022/08/14 06:36:41;;;;;;;16.60;11.07;;;;;;;;;;5104841;28;20125;-67
2022/08/14 06:39:08;;;;;;;17.35;12.40;;;;;;;;;;5104334;28;20515;-68
2022/08/14 06:41:34;;;;;;;;;;;;;;;;;;5104932;28;20517;-67
2022/08/14 06:44:00;;;;;;;21.05;11.90;;;;;;;;;;5104352;28;19919;-69
2022/08/14 06:46:26;;;;;;;;;;;;;;;;;;5102696;28;20117;-68
2022/08/14 06:48:52;;;;;;;20.23;11.73;;;;;;;;;;5104779;28;19928;-68
2022/08/14 06:51:18;;;;;;;;;;;;;;;;;;5104733;28;20130;-66
2022/08/14 06:53:44;;;;;;;21.73;11.57;;;;;;;;;;5103052;28;20038;-69
2022/08/14 06:56:10;;;;;;;;;;;;;;;;;;5104519;28;20124;-68
2022/08/14 06:58:36;;;;;;;18.10;11.57;;;;;;;;;;5104804;28;19933;-67
2022/08/14 07:06:31;;;;;;;;;;;;;;;;;;5105716;28;19957;-68
2022/08/14 07:08:57;;;;;;;;;;;;;;;;;;5105457;28;20348;-66
2022/08/14 07:11:23;;;;;;;;;;;;;;;;;;5105417;28;20362;-69
2022/08/14 07:13:49;;;;;;;;;;;;;;;;;;5104322;28;19943;-69
2022/08/14 07:16:14;;;;;;;;;;;;;;;;;;5105602;28;19926;-69
2022/08/14 07:18:40;;;;;;;;;;;;;;;;;;5105036;28;19964;-68
2022/08/14 07:21:06;;;;;;;;;;;;;;;;;;5103619;28;20023;-69
2022/08/14 07:23:32;;;;;;;;;;;;;;;;;;5104896;28;19920;-68
2022/08/14 07:25:58;;;;;;;;;;;;;;;;;;5104929;28;20348;-67
2022/08/14 07:28:25;;;;;;;;;;;;;;;;;;5105047;28;20415;-69
2022/08/14 07:30:51;;;;;;;;;;;;;;;;;;5105136;28;20334;-68
2022/08/14 07:33:17;;;;;;;;;;;;;;;;;;5119824;27;20010;-69
2022/08/14 07:35:43;;;;;;;;;;;;;;;;;;5104835;28;19999;-72
2022/08/14 07:38:12;;;;;;;;;;;;;;;;;;5104294;28;19920;-70
2022/08/14 07:40:38;;;;;;;;;;;;;;;;;;5105026;28;20057;-68
2022/08/14 07:43:08;;;;;;;;;;;;;;;;;;5120154;28;19928;-69
2022/08/14 07:45:34;;;;;;;;;;;;;;;;;;5091000;28;19919;-68
2022/08/14 07:48:00;;;;;;;;;;;;;;;;;;5090873;28;20312;-68
2022/08/14 07:50:29;;;;;;;;;;;;;;;;;;5090895;28;19932;-72
2022/08/14 07:52:55;;;;;;;;;;;;;;;;;;5091137;28;20019;-69
2022/08/14 07:55:21;;;;;;;;;;;;;;;;;;5090914;28;20273;-70
2022/08/14 07:57:47;;;;;;;;;;;;;;;;;;5091090;28;19920;-69
2022/08/14 08:00:13;;;;;;;;;;;;;;;;;;5090483;28;19999;-71
2022/08/14 08:02:40;;;;;;;;;;;;;;;;;;5090425;28;20356;-67
2022/08/14 08:05:06;;;;;;;;;;;;;;;;;;5090669;28;19939;-71
2022/08/14 08:07:33;;;;;;;;;;;;;;;;;;5090111;28;19920;-68
2022/08/14 08:09:59;;;;;;;;;;;;;;;;;;5090449;28;19985;-66
2022/08/14 08:12:25;;;;;;;;;;;;;;;;;;5089663;28;19928;-67
2022/08/14 08:14:51;;;;;;;;;;;;;;;;;;5090035;28;19920;-66
2022/08/14 08:17:17;;;;;;;;;;;;;;;;;;5089618;28;19943;-68
2022/08/14 08:19:47;;;;;;;;;;;;;;;;;;5090124;28;19959;-68
2022/08/14 08:22:13;;;;;;;;;;;;;;;;;;5090059;28;19920;-72
2022/08/14 08:24:39;;;;;;;;;;;;;;;;;;5090257;28;19924;-67
2022/08/14 08:27:05;;;;;;;;;;;;;;;;;;5105287;28;19935;-67
2022/08/14 08:29:31;;;;;;;;;;;;;;;;;;5089322;28;20279;-69
2022/08/14 08:31:58;;;;;;;;;;;;;;;;;;5089565;28;19976;-67
2022/08/14 08:34:25;;;;;;;;;;;;;;;;;;5089317;28;20124;-70
2022/08/14 08:36:51;;;;;;;;;;;;;;;;;;5089815;28;20045;-69
2022/08/14 08:39:17;;;;;;;;;;;;;;;;;;5089765;28;19962;-80
2022/08/14 08:41:43;;;;;;;;;;;;;;;;;;5088280;28;19970;-68
2022/08/14 08:44:09;;;;;;;;;;;;;;;;;;5088024;28;19939;-67
2022/08/14 08:46:35;;;;;;;;;;;;;;;;;;5104276;28;20236;-72
2022/08/14 08:49:01;;;;;;;;;;;;;;;;;;5089403;28;19920;-69
2022/08/14 08:51:29;;;;;;;;;;;;;;;;;;5088746;28;20339;-69
2022/08/14 08:53:56;;;;;;;;;;;;;;;;;;5089466;28;19919;-68
2022/08/14 08:56:22;;;;;;;;;;;;;;;;;;5087787;28;19927;-69
2022/08/14 08:58:48;;;;;;;;;;;;;;;;;;5089593;28;19956;-68
2022/08/14 09:01:14;;;;;;;;;;;;;;;;;;5089658;28;19956;-69
2022/08/14 09:03:39;;;;;;;;;;;;;;;;;;5089022;28;20210;-68
2022/08/14 09:06:09;;;;;;;;;;;;;;;;;;5089377;28;19920;-68
2022/08/14 09:08:36;;;;;;;;;;;;;;;;;;5089018;28;20327;-68
2022/08/14 09:11:02;;;;;;;;;;;;;;;;;;5089462;28;20367;-78
2022/08/14 09:13:31;;;;;;;;;;;;;;;;;;5088749;28;20449;-70
2022/08/14 09:15:57;;;;;;;;;;;;;;;;;;5089236;28;20028;-70
2022/08/14 09:18:25;;;;;;;;;;;;;;;;;;5088861;28;20236;-69
2022/08/14 09:20:51;;;;;;;;;;;;;;;;;;5089097;28;19920;-66
2022/08/14 09:23:17;;;;;;;;;;;;;;;;;;5088757;28;20247;-71
2022/08/14 09:25:43;;;;;;;;;;;;;;;;;;5103749;28;20294;-72
2022/08/14 09:28:09;;;;;;;;;;;;;;;;;;5088578;28;19960;-66
2022/08/14 09:30:35;;;;;;;;;;;;;;;;;;5088371;28;20025;-76
2022/08/14 09:33:01;;;;;;;;;;;;;;;;;;5088168;28;19927;-67
2022/08/14 09:35:27;;;;;;;;;;;;;;;;;;5088217;28;19920;-68
2022/08/14 09:37:53;;;;;;;;;;;;;;;;;;5087426;28;19920;-67
2022/08/14 09:40:19;;;;;;;;;;;;;;;;;;5088372;28;19920;-67
2022/08/14 09:42:45;;;;;;;;;;;;;;;;;;5088897;28;19943;-68
2022/08/14 09:45:11;;;;;;;;;;;;;;;;;;5088353;28;19984;-66
2022/08/14 09:47:46;;;;;;;;;;;;;;;;;;5088439;28;19973;-67
2022/08/14 09:50:12;;;;;;;;;;;;;;;;;;5088623;28;20299;-67
2022/08/14 09:52:38;;;;;;;;;;;;;;;;;;5088263;28;19936;-67
2022/08/14 09:55:04;;;;;;;;;;;;;;;;;;5088479;28;20250;-67
2022/08/14 09:57:30;;;;;;;;;;;;;;;;;;5088062;28;19931;-69
2022/08/14 09:59:56;;;;;;;;;;;;;;;;;;5088150;28;20369;-69
2022/08/14 10:02:22;;;;;;;;;;;;;;;;;;5087759;28;19928;-67
2022/08/14 10:04:48;;;;;;;;;;;;;;;;;;5086173;28;19928;-69
2022/08/14 10:07:14;;;;;;;;;;;;;;;;;;5088128;28;19981;-68
2022/08/14 10:09:40;;;;;;;;;;;;;;;;;;5087448;28;20011;-69
2022/08/14 10:12:06;;;;;;;;;;;;;;;;;;5087118;28;20355;-72
2022/08/14 10:14:32;;;;;;;;;;;;;;;;;;5087643;28;19931;-70
2022/08/14 10:17:01;;;;;;;;;;;;;;;;;;5088535;28;20244;-68
2022/08/14 10:19:29;;;;;;;;;;;;;;;;;;5088215;28;20332;-68
2022/08/14 10:21:55;;;;;;;;;;;;;;;;;;5088471;28;19998;-69
2022/08/14 10:24:21;;;;;;;;;;;;;;;;;;5088337;28;20023;-69
2022/08/14 10:26:48;;;;;;;;;;;;;;;;;;5087620;28;19920;-68
2022/08/14 10:29:16;;;;;;;;;;;;;;;;;;5088333;28;20267;-70
2022/08/14 10:31:43;;;;;;;;;;;;;;;;;;5088114;28;19928;-68
2022/08/14 10:34:09;;;;;;;;;;;;;;;;;;5087278;28;19991;-70
2022/08/14 10:36:38;;;;;;;;;;;;;;;;;;5087426;28;19930;-68
2022/08/14 10:39:04;;;;;;;;;;;;;;;;;;5088047;28;19923;-70
2022/08/14 10:41:30;;;;;;;;;;;;;;;;;;5087708;28;19931;-67
2022/08/14 10:43:57;;;;;;;;;;;;;;;;;;5088216;28;19927;-68
2022/08/14 10:46:23;;;;;;;;;;;;;;;;;;5087987;28;20358;-69
2022/08/14 10:48:50;;;;;;;;;;;;;;;;;;5087077;28;19920;-68
2022/08/14 10:51:19;;;;;;;;;;;;;;;;;;5085864;28;19969;-69
2022/08/14 10:53:45;;;;;;;;;;;;;;;;;;5086835;28;20015;-69
2022/08/14 10:56:12;;;;;;;;;;;;;;;;;;5087065;28;19939;-71
2022/08/14 10:58:38;;;;;;;;;;;;;;;;;;5086417;28;19927;-70
2022/08/14 11:01:06;;;;;;;;;;;;;;;;;;5087996;28;20309;-68
2022/08/14 11:03:32;;;;;;;;;;;;;;;;;;5086650;28;19920;-69
2022/08/14 11:06:00;;;;;;;;;;;;;;;;;;5102611;28;19927;-68
2022/08/14 11:08:25;;;;;;;;;;;;;;;;;;5102643;28;19999;-68
2022/08/14 11:10:51;;;;;;;;;;;;;;;;;;5086328;28;19931;-69
2022/08/14 11:13:18;;;;;;;;;;;;;;;;;;5085755;28;19924;-67
2022/08/14 11:15:45;;;;;;;;;;;;;;;;;;5085445;28;20011;-71
2022/08/14 11:18:11;;;;;;;;;;;;;;;;;;5103248;28;19939;-66
2022/08/14 11:20:38;;;;;;;;;;;;;;;;;;5090653;28;19924;-73
2022/08/14 11:23:06;;;;;;;;;;;;;;;;;;5091291;28;19924;-69
2022/08/14 11:25:32;;;;;;;;;;;;;;;;;;5091079;28;19920;-79
2022/08/14 11:27:58;;;;;;;;;;;;;;;;;;5091261;28;20129;-71
2022/08/14 11:30:24;;;;;;;;;;;;;;;;;;5091159;28;19921;-71
2022/08/14 11:32:50;;;;;;;;;;;;;;;;;;5105458;28;20313;-71
2022/08/14 11:35:16;;;;;;;;;;;;;;;;;;5091159;28;20022;-71
2022/08/14 11:37:42;;;;;;;;;;;;;;;;;;5090676;28;19920;-72
2022/08/14 11:40:08;;;;;;;;;;;;;;;;;;5090660;28;19926;-70
2022/08/14 11:42:36;;;;;;;;;;;;;;;;;;5091129;28;20073;-70
2022/08/14 11:45:02;;;;;;;;;;;;;;;;;;5090654;28;19943;-67
2022/08/14 11:47:28;;;;;;;;;;;;;;;;;;5091132;28;20291;-69
2022/08/14 11:49:54;;;;;;;;;;;;;;;;;;5090174;28;20393;-72
2022/08/14 11:52:20;;;;;;;;;;;;;;;;;;5090402;28;20394;-68
2022/08/14 11:54:46;;;;;;;;;;;;;;;;;;5089851;28;19991;-70
2022/08/14 11:57:13;;;;;;;;;;;;;;;;;;5090737;28;20336;-71
2022/08/14 11:59:40;;;;;;;;;;;;;;;;;;5090699;28;19931;-74
2022/08/14 12:02:05;;;;;;;;;;;;;;;;;;5090660;28;19920;-69
2022/08/14 12:04:32;;;;;;;;;;;;;;;;;;5090325;28;20267;-67
2022/08/14 12:06:59;;;;;;;;;;;;;;;;;;5089428;28;19967;-68
2022/08/14 12:09:25;;;;;;;;;;;;;;;;;;5091247;28;20427;-68
2022/08/14 12:11:51;;;;;;;;;;;;;;;;;;5091089;28;19985;-70
2022/08/14 12:14:17;;;;;;;;;;;;;;;;;;5091515;28;20347;-68
2022/08/14 12:16:44;;;;;;;;;;;;;;;;;;5091325;28;20106;-67
2022/08/14 12:19:10;;;;;;;;;;;;;;;;;;5091369;28;20324;-70
2022/08/14 12:21:36;;;;;;;;;;;;;;;;;;5091206;28;19939;-68
2022/08/14 12:24:02;;;;;;;;;;;;;;;;;;5090569;28;19932;-67
2022/08/14 12:26:31;;;;;;;;;;;;;;;;;;5091385;28;20014;-69
2022/08/14 12:28:57;;;;;;;;;;;;;;;;;;5090592;28;20064;-66
2022/08/14 12:31:23;;;;;;;;;;;;;;;;;;5091186;28;19920;-68
2022/08/14 12:33:49;;;;;;;;;;;;;;;;;;5090377;28;19919;-68
2022/08/14 12:36:16;;;;;;;;;;;;;;;;;;5090667;28;19920;-67
2022/08/14 12:38:42;;;;;;;;;;;;;;;;;;5089406;28;19926;-66
2022/08/14 12:41:08;;;;;;;;;;;;;;;;;;5090299;28;19923;-67
2022/08/14 12:43:34;;;;;;;;;;;;;;;;;;5089435;28;19963;-69
2022/08/14 12:46:00;;;;;;;;;;;;;;;;;;5090318;28;19926;-68
2022/08/14 12:48:27;;;;;;;;;;;;;;;;;;5090570;28;19920;-66
2022/08/14 12:50:53;;;;;;;;;;;;;;;;;;5089812;28;19999;-72
2022/08/14 12:53:19;;;;;;;;;;;;;;;;;;5090182;28;19919;-67
2022/08/14 12:55:45;;;;;;;;;;;;;;;;;;5090299;28;19920;-67
2022/08/14 12:58:11;;;;;;;;;;;;;;;;;;5105285;28;19942;-67
2022/08/14 13:00:37;;;;;;;;;;;;;;;;;;5090365;28;19976;-69
2022/08/14 13:03:04;;;;;;;;;;;;;;;;;;5089652;28;19935;-68
2022/08/14 13:05:30;;;;;;;;;;;;;;;;;;5090028;28;20014;-66
2022/08/14 13:07:56;;;;;;;;;;;;;;;;;;5089764;28;20006;-68
2022/08/14 13:10:22;;;;;;;;;;;;;;;;;;5090248;28;19920;-66
2022/08/14 13:12:48;;;;;;;;;;;;;;;;;;5089998;28;19931;-67
2022/08/14 13:15:14;;;;;;;;;;;;;;;;;;5089816;28;19995;-67
2022/08/14 13:17:40;;;;;;;;;;;;;;;;;;5089847;28;19989;-68
2022/08/14 13:20:09;;;;;;;;;;;;;;;;;;5087691;28;20060;-69
2022/08/14 13:22:35;;;;;;;;;;;;;;;;;;5090533;28;20009;-69
2022/08/14 13:25:01;;;;;;;;;;;;;;;;;;5089279;28;20353;-68
2022/08/14 13:27:27;;;;;;;;;;;;;;;;;;5089666;28;19940;-67
2022/08/14 13:29:53;;;;;;;;;;;;;;;;;;5089245;28;19920;-67
2022/08/14 13:32:18;;;;;;;;;;;;;;;;;;5089765;28;19946;-69
2022/08/14 13:34:44;;;;;;;;;;;;;;;;;;5089151;28;19981;-70
2022/08/14 13:37:10;;;;;;;;;;;;;;;;;;5087897;28;20336;-69
2022/08/14 13:39:36;;;;;;;;;;;;;;;;;;5087859;28;19924;-67
2022/08/14 13:42:03;;;;;;;;;;;;;;;;;;5088594;28;20437;-69
2022/08/14 13:44:35;;;;;;;;;;;;;;;;;;5088496;28;20359;-67
2022/08/14 13:47:05;;;;;;;;;;;;;;;;;;5088892;28;19939;-66
2022/08/14 13:49:31;;;;;;;;;;;;;;;;;;5089832;28;19924;-68
2022/08/14 13:51:57;;;;;;;;;;;;;;;;;;5103880;28;20355;-70
2022/08/14 13:54:24;;;;;;;;;;;;;;;;;;5088876;28;20026;-66
2022/08/14 13:56:50;;;;;;;;;;;;;;;;;;5089705;28;19939;-68
2022/08/14 13:59:16;;;;;;;;;;;;;;;;;;5087983;28;19920;-68
2022/08/14 14:01:45;;;;;;;;;;;;;;;;;;5088642;28;20061;-68
2022/08/14 14:04:11;;;;;;;;;;;;;;;;;;5088150;28;19947;-66
2022/08/14 14:06:37;;;;;;;;;;;;;;;;;;5089149;28;20328;-65
2022/08/14 14:09:03;;;;;;;;;;;;;;;;;;5088676;28;19924;-64
2022/08/14 14:11:29;;;;;;;;;;;;;;;;;;5088395;28;19927;-67
2022/08/14 14:13:55;;;;;;;;;;;;;;;;;;5088302;28;19942;-69
2022/08/14 14:16:21;;;;;;;;;;;;;;;;;;5087803;28;19974;-68
2022/08/14 14:18:50;;;;;;;;;;;;;;;;;;5088249;28;20328;-67
2022/08/14 14:21:16;;;;;;;;;;;;;;;;;;5087888;28;19927;-69
2022/08/14 14:23:43;;;;;;;;;;;;;;;;;;5088424;28;19924;-69
2022/08/14 14:26:09;;;;;;;;;;;;;;;;;;5087961;28;19920;-68
2022/08/14 14:28:36;;;;;;;;;;;;;;;;;;5088718;28;19966;-69
2022/08/14 14:31:03;;;;;;;;;;;;;;;;;;5088174;28;19965;-70
2022/08/14 14:33:29;;;;;;;;;;;;;;;;;;5088331;28;20048;-69
2022/08/14 14:35:55;;;;;;;;;;;;;;;;;;5088917;28;19935;-66
2022/08/14 14:38:24;;;;;;;;;;;;;;;;;;5087760;28;20103;-66
2022/08/14 14:40:49;;;;;;;;;;;;;;;;;;5088379;28;20004;-67
2022/08/14 14:43:16;;;;;;;;;;;;;;;;;;5087766;28;20368;-68
2022/08/14 14:45:42;;;;;;;;;;;;;;;;;;5087813;28;20236;-68
2022/08/14 14:48:08;;;;;;;;;;;;;;;;;;5103441;28;19972;-69
2022/08/14 14:50:37;;;;;;;;;;;;;;;;;;5087894;28;19989;-69
2022/08/14 14:53:03;;;;;;;;;;;;;;;;;;5086444;28;19920;-69
2022/08/14 14:55:30;;;;;;;;;;;;;;;;;;5091510;28;19967;-68
2022/08/14 14:57:56;;;;;;;;;;;;;;;;;;5092411;28;19920;-68
2022/08/14 15:00:24;;;;;;;;;;;;;;;;;;5092735;28;20324;-66
2022/08/14 15:02:50;;;;;;;;;;;;;;;;;;5093425;28;19931;-67
2022/08/14 15:05:17;;;;;;;;;;;;;;;;;;5091928;28;20383;-69
2022/08/14 15:07:42;;;;;;;;;;;;;;;;;;5092645;28;20370;-68
2022/08/14 15:10:08;;;;;;;;;;;;;;;;;;5092427;28;19928;-70
2022/08/14 15:12:34;;;;;;;;;;;;;;;;;;5093812;28;19920;-67
2022/08/14 15:15:00;;;;;;;;;;;;;;;;;;5092946;28;20004;-67
2022/08/14 15:17:34;;;;;;;;;;;;;;;;;;5092094;28;19920;-66
2022/08/14 15:20:02;;;;;;;;;;;;;;;;;;5093198;28;19989;-67
2022/08/14 15:22:28;;;;;;;;;;;;;;;;;;5091109;28;19924;-69
2022/08/14 15:24:55;;;;;;;;;;;;;;;;;;5107468;28;20018;-69
2022/08/14 15:27:21;;;;;;;;;;;;;;;;;;5092244;28;19931;-68
2022/08/14 15:29:47;;;;;;;;;;;;;;;;;;5093321;28;19920;-67
2022/08/14 15:32:13;;;;;;;;;;;;;;;;;;5091942;28;19931;-67
2022/08/14 15:34:44;;;;;;;;;;;;;;;;;;5092642;28;19967;-67
2022/08/14 15:37:10;;;;;;;;;;;;;;;;;;5092665;28;19920;-71
2022/08/14 15:39:36;;;;;;;;;;;;;;;;;;5092811;28;19926;-66
2022/08/14 15:42:05;;;;;;;;;;;;;;;;;;5092168;28;19987;-67
2022/08/14 15:44:31;;;;;;;;;;;;;;;;;;5091654;28;19930;-67
2022/08/14 15:46:58;;;;;;;;;;;;;;;;;;5091696;28;19978;-66
2022/08/14 15:49:26;;;;;;;;;;;;;;;;;;5091602;28;20363;-66
2022/08/14 15:51:54;;;;;;;;;;;;;;;;;;5092887;28;20010;-67
2022/08/14 15:54:21;;;;;;;;;;;;;;;;;;5092603;28;20015;-69